Terminal Aerodrome Forecast
Issued by NWS

Home | Current Version | Previous Version | Text Only | Print | Product List | Glossary On
Versions: 1 2 3 4 5 6 7 8 9 10 11 12
908
FTUS46 KHNX 241740
TAFBFL
TAF
KBFL 241740Z 2418/2518 00000KT P6SM FEW250
     FM242000 28003KT P6SM SCT050
     FM250900 12003KT 5SM HZ SKC
     FM251200 03003KT 3SM BR BKN050=

USA.gov is the U.S. government's official web portal to all federal, state and local government web resources and services.